sensor_id;sensor_type;location;lat;lon;timestamp;P1;durP1;ratioP1;P2;durP2;ratioP2
18411;SDS011;27097;51.738;19.472;2022-12-07T00:01:14;11.15;;;7.05;;
18411;SDS011;27097;51.738;19.472;2022-12-07T00:03:44;11.90;;;7.32;;
18411;SDS011;27097;51.738;19.472;2022-12-07T00:06:12;11.98;;;7.50;;
18411;SDS011;27097;51.738;19.472;2022-12-07T00:08:40;11.32;;;7.00;;
18411;SDS011;27097;51.738;19.472;2022-12-07T00:11:08;11.45;;;7.90;;
18411;SDS011;27097;51.738;19.472;2022-12-07T00:13:37;12.93;;;8.15;;
18411;SDS011;27097;51.738;19.472;2022-12-07T00:16:05;11.23;;;7.32;;
18411;SDS011;27097;51.738;19.472;2022-12-07T00:18:34;14.20;;;7.57;;
18411;SDS011;27097;51.738;19.472;2022-12-07T00:21:03;11.32;;;7.35;;
18411;SDS011;27097;51.738;19.472;2022-12-07T00:23:35;11.52;;;7.55;;
18411;SDS011;27097;51.738;19.472;2022-12-07T00:26:03;12.23;;;7.82;;
18411;SDS011;27097;51.738;19.472;2022-12-07T00:28:31;10.90;;;7.70;;
18411;SDS011;27097;51.738;19.472;2022-12-07T00:31:03;11.48;;;7.63;;
18411;SDS011;27097;51.738;19.472;2022-12-07T00:33:31;13.23;;;8.05;;
18411;SDS011;27097;51.738;19.472;2022-12-07T00:35:59;14.93;;;7.95;;
18411;SDS011;27097;51.738;19.472;2022-12-07T00:38:28;14.50;;;7.68;;
18411;SDS011;27097;51.738;19.472;2022-12-07T00:40:56;11.90;;;7.68;;
18411;SDS011;27097;51.738;19.472;2022-12-07T00:43:24;14.77;;;8.50;;
18411;SDS011;27097;51.738;19.472;2022-12-07T00:45:51;18.45;;;7.75;;
18411;SDS011;27097;51.738;19.472;2022-12-07T00:48:19;13.60;;;7.88;;
18411;SDS011;27097;51.738;19.472;2022-12-07T00:50:46;13.18;;;7.85;;
18411;SDS011;27097;51.738;19.472;2022-12-07T00:53:13;12.30;;;7.78;;
18411;SDS011;27097;51.738;19.472;2022-12-07T00:55:42;12.63;;;8.40;;
18411;SDS011;27097;51.738;19.472;2022-12-07T00:58:09;12.00;;;8.32;;
18411;SDS011;27097;51.738;19.472;2022-12-07T01:00:37;11.02;;;7.85;;
18411;SDS011;27097;51.738;19.472;2022-12-07T01:03:06;13.25;;;8.38;;
18411;SDS011;27097;51.738;19.472;2022-12-07T01:05:34;14.63;;;8.13;;
18411;SDS011;27097;51.738;19.472;2022-12-07T01:08:02;11.70;;;7.45;;
18411;SDS011;27097;51.738;19.472;2022-12-07T01:10:29;11.40;;;7.95;;
18411;SDS011;27097;51.738;19.472;2022-12-07T01:12:58;12.02;;;7.97;;
18411;SDS011;27097;51.738;19.472;2022-12-07T01:15:25;12.32;;;7.32;;
18411;SDS011;27097;51.738;19.472;2022-12-07T01:17:53;12.68;;;8.48;;
18411;SDS011;27097;51.738;19.472;2022-12-07T01:20:20;11.82;;;7.78;;
18411;SDS011;27097;51.738;19.472;2022-12-07T01:22:48;14.07;;;7.25;;
18411;SDS011;27097;51.738;19.472;2022-12-07T01:25:15;15.93;;;7.97;;
18411;SDS011;27097;51.738;19.472;2022-12-07T01:27:42;12.93;;;7.93;;
18411;SDS011;27097;51.738;19.472;2022-12-07T01:30:11;11.48;;;7.43;;
18411;SDS011;27097;51.738;19.472;2022-12-07T01:32:39;14.50;;;8.02;;
18411;SDS011;27097;51.738;19.472;2022-12-07T01:35:06;11.35;;;7.30;;
18411;SDS011;27097;51.738;19.472;2022-12-07T01:37:34;10.15;;;7.22;;
18411;SDS011;27097;51.738;19.472;2022-12-07T01:40:02;13.15;;;7.63;;
18411;SDS011;27097;51.738;19.472;2022-12-07T01:42:36;11.80;;;7.15;;
18411;SDS011;27097;51.738;19.472;2022-12-07T01:45:34;10.50;;;7.28;;
18411;SDS011;27097;51.738;19.472;2022-12-07T01:48:04;12.68;;;7.55;;
18411;SDS011;27097;51.738;19.472;2022-12-07T01:50:33;10.55;;;7.07;;
18411;SDS011;27097;51.738;19.472;2022-12-07T01:53:01;9.20;;;6.63;;
18411;SDS011;27097;51.738;19.472;2022-12-07T01:55:32;10.35;;;6.93;;
18411;SDS011;27097;51.738;19.472;2022-12-07T01:58:00;13.00;;;6.90;;
18411;SDS011;27097;51.738;19.472;2022-12-07T02:00:27;12.45;;;6.90;;
18411;SDS011;27097;51.738;19.472;2022-12-07T02:02:57;11.23;;;6.82;;
18411;SDS011;27097;51.738;19.472;2022-12-07T02:05:29;9.48;;;6.78;;
18411;SDS011;27097;51.738;19.472;2022-12-07T02:07:57;11.13;;;6.60;;
18411;SDS011;27097;51.738;19.472;2022-12-07T02:10:25;10.88;;;6.25;;
18411;SDS011;27097;51.738;19.472;2022-12-07T02:12:54;9.82;;;6.75;;
18411;SDS011;27097;51.738;19.472;2022-12-07T02:15:26;9.55;;;6.57;;
18411;SDS011;27097;51.738;19.472;2022-12-07T02:18:03;10.57;;;6.70;;
18411;SDS011;27097;51.738;19.472;2022-12-07T02:20:33;10.57;;;6.40;;
18411;SDS011;27097;51.738;19.472;2022-12-07T02:29:13;11.43;;;6.82;;
18411;SDS011;27097;51.738;19.472;2022-12-07T02:31:46;10.68;;;6.55;;
18411;SDS011;27097;51.738;19.472;2022-12-07T02:34:21;10.13;;;6.10;;
18411;SDS011;27097;51.738;19.472;2022-12-07T02:36:55;10.32;;;6.22;;
18411;SDS011;27097;51.738;19.472;2022-12-07T02:39:30;9.30;;;6.07;;
18411;SDS011;27097;51.738;19.472;2022-12-07T02:42:06;9.68;;;6.28;;
18411;SDS011;27097;51.738;19.472;2022-12-07T02:44:42;8.95;;;5.95;;
18411;SDS011;27097;51.738;19.472;2022-12-07T02:47:12;8.63;;;5.65;;
18411;SDS011;27097;51.738;19.472;2022-12-07T02:49:42;9.90;;;6.00;;
18411;SDS011;27097;51.738;19.472;2022-12-07T02:52:09;9.88;;;6.38;;
18411;SDS011;27097;51.738;19.472;2022-12-07T02:54:36;9.05;;;6.50;;
18411;SDS011;27097;51.738;19.472;2022-12-07T02:57:05;7.80;;;5.97;;
18411;SDS011;27097;51.738;19.472;2022-12-07T02:59:46;9.93;;;5.88;;
18411;SDS011;27097;51.738;19.472;2022-12-07T03:02:26;12.35;;;5.63;;
18411;SDS011;27097;51.738;19.472;2022-12-07T03:05:01;7.35;;;5.70;;
18411;SDS011;27097;51.738;19.472;2022-12-07T03:07:39;8.35;;;5.72;;
18411;SDS011;27097;51.738;19.472;2022-12-07T03:10:16;9.20;;;6.05;;
18411;SDS011;27097;51.738;19.472;2022-12-07T03:12:51;7.53;;;5.25;;
18411;SDS011;27097;51.738;19.472;2022-12-07T03:15:27;8.15;;;5.60;;
18411;SDS011;27097;51.738;19.472;2022-12-07T03:17:59;9.23;;;5.68;;
18411;SDS011;27097;51.738;19.472;2022-12-07T03:20:28;8.73;;;5.47;;
18411;SDS011;27097;51.738;19.472;2022-12-07T03:22:57;9.40;;;5.93;;
18411;SDS011;27097;51.738;19.472;2022-12-07T03:25:26;7.78;;;5.72;;
18411;SDS011;27097;51.738;19.472;2022-12-07T03:27:54;12.20;;;5.97;;
18411;SDS011;27097;51.738;19.472;2022-12-07T03:30:28;7.60;;;5.38;;
18411;SDS011;27097;51.738;19.472;2022-12-07T03:33:01;6.93;;;5.25;;
18411;SDS011;27097;51.738;19.472;2022-12-07T03:35:33;7.60;;;5.47;;
18411;SDS011;27097;51.738;19.472;2022-12-07T03:38:04;9.57;;;5.60;;
18411;SDS011;27097;51.738;19.472;2022-12-07T03:40:40;9.45;;;5.15;;
18411;SDS011;27097;51.738;19.472;2022-12-07T03:43:14;6.45;;;4.75;;
18411;SDS011;27097;51.738;19.472;2022-12-07T03:45:45;7.15;;;5.22;;
18411;SDS011;27097;51.738;19.472;2022-12-07T03:48:25;7.90;;;5.50;;
18411;SDS011;27097;51.738;19.472;2022-12-07T03:51:00;6.57;;;4.80;;
18411;SDS011;27097;51.738;19.472;2022-12-07T03:53:33;6.82;;;4.95;;
18411;SDS011;27097;51.738;19.472;2022-12-07T03:56:05;6.28;;;4.90;;
18411;SDS011;27097;51.738;19.472;2022-12-07T03:58:34;7.88;;;4.80;;
18411;SDS011;27097;51.738;19.472;2022-12-07T04:01:03;7.32;;;5.30;;
18411;SDS011;27097;51.738;19.472;2022-12-07T04:03:30;9.32;;;5.00;;
18411;SDS011;27097;51.738;19.472;2022-12-07T04:05:57;7.70;;;5.03;;
18411;SDS011;27097;51.738;19.472;2022-12-07T04:08:25;6.68;;;4.55;;
18411;SDS011;27097;51.738;19.472;2022-12-07T04:10:51;7.90;;;5.00;;
18411;SDS011;27097;51.738;19.472;2022-12-07T04:13:18;7.65;;;4.90;;
18411;SDS011;27097;51.738;19.472;2022-12-07T04:15:45;6.50;;;5.03;;
18411;SDS011;27097;51.738;19.472;2022-12-07T04:18:14;6.68;;;4.53;;
18411;SDS011;27097;51.738;19.472;2022-12-07T04:20:40;7.78;;;4.80;;
18411;SDS011;27097;51.738;19.472;2022-12-07T04:23:07;6.13;;;4.88;;
18411;SDS011;27097;51.738;19.472;2022-12-07T04:25:34;5.88;;;4.47;;
18411;SDS011;27097;51.738;19.472;2022-12-07T04:28:01;6.90;;;4.53;;
18411;SDS011;27097;51.738;19.472;2022-12-07T04:30:28;5.22;;;4.15;;
18411;SDS011;27097;51.738;19.472;2022-12-07T04:32:55;5.95;;;4.50;;
18411;SDS011;27097;51.738;19.472;2022-12-07T04:35:23;6.05;;;4.43;;
18411;SDS011;27097;51.738;19.472;2022-12-07T04:37:50;7.03;;;4.60;;
18411;SDS011;27097;51.738;19.472;2022-12-07T04:40:17;5.70;;;4.57;;
18411;SDS011;27097;51.738;19.472;2022-12-07T04:42:44;6.97;;;4.78;;
18411;SDS011;27097;51.738;19.472;2022-12-07T04:45:11;5.88;;;4.47;;
18411;SDS011;27097;51.738;19.472;2022-12-07T04:47:38;5.55;;;4.47;;
18411;SDS011;27097;51.738;19.472;2022-12-07T04:50:05;7.85;;;4.57;;
18411;SDS011;27097;51.738;19.472;2022-12-07T04:52:34;5.85;;;4.20;;
18411;SDS011;27097;51.738;19.472;2022-12-07T04:55:01;8.55;;;4.22;;
18411;SDS011;27097;51.738;19.472;2022-12-07T04:57:29;6.93;;;4.68;;
18411;SDS011;27097;51.738;19.472;2022-12-07T04:59:55;6.13;;;4.20;;
18411;SDS011;27097;51.738;19.472;2022-12-07T05:02:22;6.55;;;4.55;;
18411;SDS011;27097;51.738;19.472;2022-12-07T05:04:49;5.30;;;3.65;;
18411;SDS011;27097;51.738;19.472;2022-12-07T05:07:16;7.30;;;3.80;;
18411;SDS011;27097;51.738;19.472;2022-12-07T05:09:45;5.93;;;4.20;;
18411;SDS011;27097;51.738;19.472;2022-12-07T05:12:11;5.05;;;3.95;;
18411;SDS011;27097;51.738;19.472;2022-12-07T05:14:38;5.05;;;4.03;;
18411;SDS011;27097;51.738;19.472;2022-12-07T05:17:05;6.63;;;4.25;;
18411;SDS011;27097;51.738;19.472;2022-12-07T05:19:32;6.68;;;4.07;;
18411;SDS011;27097;51.738;19.472;2022-12-07T05:21:59;5.15;;;4.10;;
18411;SDS011;27097;51.738;19.472;2022-12-07T05:24:26;5.85;;;4.20;;
18411;SDS011;27097;51.738;19.472;2022-12-07T05:26:54;5.32;;;4.13;;
18411;SDS011;27097;51.738;19.472;2022-12-07T05:29:21;5.00;;;3.90;;
18411;SDS011;27097;51.738;19.472;2022-12-07T05:31:48;6.68;;;4.50;;
18411;SDS011;27097;51.738;19.472;2022-12-07T05:34:15;5.13;;;4.00;;
18411;SDS011;27097;51.738;19.472;2022-12-07T05:36:42;6.20;;;4.07;;
18411;SDS011;27097;51.738;19.472;2022-12-07T05:39:09;5.57;;;3.85;;
18411;SDS011;27097;51.738;19.472;2022-12-07T05:41:36;5.30;;;3.85;;
18411;SDS011;27097;51.738;19.472;2022-12-07T05:44:22;9.90;;;3.85;;
18411;SDS011;27097;51.738;19.472;2022-12-07T05:46:49;7.38;;;4.28;;
18411;SDS011;27097;51.738;19.472;2022-12-07T05:49:16;6.90;;;3.72;;
18411;SDS011;27097;51.738;19.472;2022-12-07T05:51:43;5.22;;;4.22;;
18411;SDS011;27097;51.738;19.472;2022-12-07T05:54:10;4.90;;;3.67;;
18411;SDS011;27097;51.738;19.472;2022-12-07T05:56:37;5.18;;;3.95;;
18411;SDS011;27097;51.738;19.472;2022-12-07T05:59:04;7.13;;;4.10;;
18411;SDS011;27097;51.738;19.472;2022-12-07T06:01:50;4.78;;;3.65;;
18411;SDS011;27097;51.738;19.472;2022-12-07T06:04:19;5.80;;;3.53;;
18411;SDS011;27097;51.738;19.472;2022-12-07T06:06:46;7.03;;;4.00;;
18411;SDS011;27097;51.738;19.472;2022-12-07T06:09:13;4.90;;;3.53;;
18411;SDS011;27097;51.738;19.472;2022-12-07T06:11:41;4.68;;;3.70;;
18411;SDS011;27097;51.738;19.472;2022-12-07T06:14:25;5.55;;;3.63;;
18411;SDS011;27097;51.738;19.472;2022-12-07T06:16:53;5.03;;;3.83;;
18411;SDS011;27097;51.738;19.472;2022-12-07T06:19:21;4.90;;;3.65;;
18411;SDS011;27097;51.738;19.472;2022-12-07T06:21:48;4.40;;;3.38;;
18411;SDS011;27097;51.738;19.472;2022-12-07T06:24:15;4.68;;;3.72;;
18411;SDS011;27097;51.738;19.472;2022-12-07T06:26:42;6.43;;;4.38;;
18411;SDS011;27097;51.738;19.472;2022-12-07T06:29:10;5.32;;;3.80;;
18411;SDS011;27097;51.738;19.472;2022-12-07T06:31:37;5.07;;;3.95;;
18411;SDS011;27097;51.738;19.472;2022-12-07T06:34:07;5.20;;;4.03;;
18411;SDS011;27097;51.738;19.472;2022-12-07T06:36:36;6.75;;;4.25;;
18411;SDS011;27097;51.738;19.472;2022-12-07T06:39:04;10.38;;;4.40;;
18411;SDS011;27097;51.738;19.472;2022-12-07T06:41:31;5.35;;;3.72;;
18411;SDS011;27097;51.738;19.472;2022-12-07T06:43:58;5.13;;;3.55;;
18411;SDS011;27097;51.738;19.472;2022-12-07T06:46:25;4.80;;;3.85;;
18411;SDS011;27097;51.738;19.472;2022-12-07T06:48:52;6.85;;;3.35;;
18411;SDS011;27097;51.738;19.472;2022-12-07T06:51:20;4.53;;;3.83;;
18411;SDS011;27097;51.738;19.472;2022-12-07T06:53:47;5.05;;;3.90;;
18411;SDS011;27097;51.738;19.472;2022-12-07T06:56:14;6.45;;;3.80;;
18411;SDS011;27097;51.738;19.472;2022-12-07T06:58:41;6.75;;;3.50;;
18411;SDS011;27097;51.738;19.472;2022-12-07T07:01:09;5.43;;;3.90;;
18411;SDS011;27097;51.738;19.472;2022-12-07T07:03:36;8.65;;;4.10;;
18411;SDS011;27097;51.738;19.472;2022-12-07T07:06:04;8.15;;;3.88;;
18411;SDS011;27097;51.738;19.472;2022-12-07T07:08:33;9.15;;;3.97;;
18411;SDS011;27097;51.738;19.472;2022-12-07T07:11:00;8.45;;;3.85;;
18411;SDS011;27097;51.738;19.472;2022-12-07T07:13:27;7.00;;;4.15;;
18411;SDS011;27097;51.738;19.472;2022-12-07T07:15:54;7.35;;;3.95;;
18411;SDS011;27097;51.738;19.472;2022-12-07T07:18:21;13.52;;;3.85;;
18411;SDS011;27097;51.738;19.472;2022-12-07T07:20:49;8.43;;;3.92;;
18411;SDS011;27097;51.738;19.472;2022-12-07T07:23:16;6.65;;;3.70;;
18411;SDS011;27097;51.738;19.472;2022-12-07T07:25:45;7.45;;;4.22;;
18411;SDS011;27097;51.738;19.472;2022-12-07T07:28:12;8.50;;;4.28;;
18411;SDS011;27097;51.738;19.472;2022-12-07T07:30:40;6.15;;;4.22;;
18411;SDS011;27097;51.738;19.472;2022-12-07T07:33:07;9.02;;;3.80;;
18411;SDS011;27097;51.738;19.472;2022-12-07T07:35:35;6.70;;;3.90;;
18411;SDS011;27097;51.738;19.472;2022-12-07T07:38:02;8.88;;;4.03;;
18411;SDS011;27097;51.738;19.472;2022-12-07T07:40:29;10.18;;;4.03;;
18411;SDS011;27097;51.738;19.472;2022-12-07T07:42:57;8.63;;;4.03;;
18411;SDS011;27097;51.738;19.472;2022-12-07T07:45:25;9.18;;;4.00;;
18411;SDS011;27097;51.738;19.472;2022-12-07T07:47:53;8.20;;;4.38;;
18411;SDS011;27097;51.738;19.472;2022-12-07T07:50:20;9.52;;;4.43;;
18411;SDS011;27097;51.738;19.472;2022-12-07T07:52:47;6.53;;;4.40;;
18411;SDS011;27097;51.738;19.472;2022-12-07T07:55:14;6.18;;;3.85;;
18411;SDS011;27097;51.738;19.472;2022-12-07T07:57:41;8.15;;;3.95;;
18411;SDS011;27097;51.738;19.472;2022-12-07T08:00:11;9.60;;;4.03;;
18411;SDS011;27097;51.738;19.472;2022-12-07T08:02:40;13.18;;;4.07;;
18411;SDS011;27097;51.738;19.472;2022-12-07T08:05:08;10.23;;;4.10;;
18411;SDS011;27097;51.738;19.472;2022-12-07T08:07:36;15.68;;;4.20;;
18411;SDS011;27097;51.738;19.472;2022-12-07T08:10:03;16.10;;;4.20;;
18411;SDS011;27097;51.738;19.472;2022-12-07T08:12:31;11.70;;;4.25;;
18411;SDS011;27097;51.738;19.472;2022-12-07T08:15:01;12.23;;;4.07;;
18411;SDS011;27097;51.738;19.472;2022-12-07T08:17:29;15.00;;;4.05;;
18411;SDS011;27097;51.738;19.472;2022-12-07T08:19:56;10.30;;;3.72;;
18411;SDS011;27097;51.738;19.472;2022-12-07T08:22:23;9.35;;;3.70;;
18411;SDS011;27097;51.738;19.472;2022-12-07T08:24:50;8.70;;;4.30;;
18411;SDS011;27097;51.738;19.472;2022-12-07T08:27:17;8.90;;;3.90;;
18411;SDS011;27097;51.738;19.472;2022-12-07T08:29:44;9.10;;;4.15;;
18411;SDS011;27097;51.738;19.472;2022-12-07T08:32:11;8.10;;;4.43;;
18411;SDS011;27097;51.738;19.472;2022-12-07T08:34:39;10.93;;;3.67;;
18411;SDS011;27097;51.738;19.472;2022-12-07T08:37:06;11.73;;;3.65;;
18411;SDS011;27097;51.738;19.472;2022-12-07T08:39:33;14.90;;;4.07;;
18411;SDS011;27097;51.738;19.472;2022-12-07T08:42:00;12.23;;;4.28;;
18411;SDS011;27097;51.738;19.472;2022-12-07T08:44:27;11.70;;;4.00;;
18411;SDS011;27097;51.738;19.472;2022-12-07T08:46:55;9.05;;;3.97;;
18411;SDS011;27097;51.738;19.472;2022-12-07T08:49:25;10.77;;;4.38;;
18411;SDS011;27097;51.738;19.472;2022-12-07T08:51:58;11.63;;;4.43;;
18411;SDS011;27097;51.738;19.472;2022-12-07T08:54:25;9.02;;;3.75;;
18411;SDS011;27097;51.738;19.472;2022-12-07T08:56:53;14.60;;;4.15;;
18411;SDS011;27097;51.738;19.472;2022-12-07T08:59:22;8.18;;;3.90;;
18411;SDS011;27097;51.738;19.472;2022-12-07T09:01:49;9.13;;;4.00;;
18411;SDS011;27097;51.738;19.472;2022-12-07T09:04:16;6.85;;;4.50;;
18411;SDS011;27097;51.738;19.472;2022-12-07T09:06:43;9.93;;;3.83;;
18411;SDS011;27097;51.738;19.472;2022-12-07T09:09:12;8.55;;;4.15;;
18411;SDS011;27097;51.738;19.472;2022-12-07T09:11:40;9.75;;;4.13;;
18411;SDS011;27097;51.738;19.472;2022-12-07T09:14:07;8.05;;;3.95;;
18411;SDS011;27097;51.738;19.472;2022-12-07T09:16:34;11.23;;;4.10;;
18411;SDS011;27097;51.738;19.472;2022-12-07T09:19:01;7.45;;;3.83;;
18411;SDS011;27097;51.738;19.472;2022-12-07T09:21:28;13.80;;;4.38;;
18411;SDS011;27097;51.738;19.472;2022-12-07T09:23:56;7.30;;;4.40;;
18411;SDS011;27097;51.738;19.472;2022-12-07T09:26:24;16.05;;;4.05;;
18411;SDS011;27097;51.738;19.472;2022-12-07T09:28:51;10.65;;;4.10;;
18411;SDS011;27097;51.738;19.472;2022-12-07T09:31:18;10.00;;;3.92;;
18411;SDS011;27097;51.738;19.472;2022-12-07T09:33:45;11.17;;;4.23;;
18411;SDS011;27097;51.738;19.472;2022-12-07T09:36:12;9.88;;;4.35;;
18411;SDS011;27097;51.738;19.472;2022-12-07T09:38:39;8.82;;;3.50;;
18411;SDS011;27097;51.738;19.472;2022-12-07T09:41:06;9.27;;;3.78;;
18411;SDS011;27097;51.738;19.472;2022-12-07T09:43:35;12.43;;;3.90;;
18411;SDS011;27097;51.738;19.472;2022-12-07T09:46:05;14.00;;;4.22;;
18411;SDS011;27097;51.738;19.472;2022-12-07T09:48:33;13.05;;;3.97;;
18411;SDS011;27097;51.738;19.472;2022-12-07T09:51:10;7.35;;;3.90;;
18411;SDS011;27097;51.738;19.472;2022-12-07T09:53:41;8.38;;;4.18;;
18411;SDS011;27097;51.738;19.472;2022-12-07T09:56:09;12.95;;;4.28;;
18411;SDS011;27097;51.738;19.472;2022-12-07T09:58:40;11.27;;;4.45;;
18411;SDS011;27097;51.738;19.472;2022-12-07T10:01:11;16.48;;;4.72;;
18411;SDS011;27097;51.738;19.472;2022-12-07T10:03:40;13.82;;;4.55;;
18411;SDS011;27097;51.738;19.472;2022-12-07T10:06:15;23.88;;;4.35;;
18411;SDS011;27097;51.738;19.472;2022-12-07T10:08:41;12.50;;;4.57;;
18411;SDS011;27097;51.738;19.472;2022-12-07T10:11:08;21.88;;;5.00;;
18411;SDS011;27097;51.738;19.472;2022-12-07T10:13:37;17.02;;;4.78;;
18411;SDS011;27097;51.738;19.472;2022-12-07T10:16:07;12.48;;;4.05;;
18411;SDS011;27097;51.738;19.472;2022-12-07T10:19:20;12.90;;;4.82;;
18411;SDS011;27097;51.738;19.472;2022-12-07T10:21:59;9.63;;;4.10;;
18411;SDS011;27097;51.738;19.472;2022-12-07T10:24:29;12.95;;;4.45;;
18411;SDS011;27097;51.738;19.472;2022-12-07T10:26:56;12.70;;;4.57;;
18411;SDS011;27097;51.738;19.472;2022-12-07T10:29:24;16.08;;;5.05;;
18411;SDS011;27097;51.738;19.472;2022-12-07T10:31:57;8.63;;;4.45;;
18411;SDS011;27097;51.738;19.472;2022-12-07T10:34:26;13.40;;;4.45;;
18411;SDS011;27097;51.738;19.472;2022-12-07T10:37:07;8.93;;;4.20;;
18411;SDS011;27097;51.738;19.472;2022-12-07T10:39:42;12.57;;;4.82;;
18411;SDS011;27097;51.738;19.472;2022-12-07T10:42:17;11.98;;;4.30;;
18411;SDS011;27097;51.738;19.472;2022-12-07T10:44:46;12.52;;;4.72;;
18411;SDS011;27097;51.738;19.472;2022-12-07T10:47:24;13.73;;;4.20;;
18411;SDS011;27097;51.738;19.472;2022-12-07T10:53:20;15.07;;;3.65;;
18411;SDS011;27097;51.738;19.472;2022-12-07T10:59:04;6.47;;;3.50;;
18411;SDS011;27097;51.738;19.472;2022-12-07T11:01:57;9.55;;;3.83;;
18411;SDS011;27097;51.738;19.472;2022-12-07T11:04:35;10.18;;;3.97;;
18411;SDS011;27097;51.738;19.472;2022-12-07T11:07:10;8.63;;;3.85;;
18411;SDS011;27097;51.738;19.472;2022-12-07T11:09:47;7.20;;;4.15;;
18411;SDS011;27097;51.738;19.472;2022-12-07T11:12:26;10.30;;;3.90;;
18411;SDS011;27097;51.738;19.472;2022-12-07T11:15:04;8.40;;;4.30;;
18411;SDS011;27097;51.738;19.472;2022-12-07T11:17:42;7.63;;;3.70;;
18411;SDS011;27097;51.738;19.472;2022-12-07T11:20:18;7.70;;;3.58;;
18411;SDS011;27097;51.738;19.472;2022-12-07T11:23:03;10.05;;;4.15;;
18411;SDS011;27097;51.738;19.472;2022-12-07T11:25:39;6.68;;;3.28;;
18411;SDS011;27097;51.738;19.472;2022-12-07T11:28:18;9.15;;;3.85;;
18411;SDS011;27097;51.738;19.472;2022-12-07T11:30:57;295.25;;;16.65;;
18411;SDS011;27097;51.738;19.472;2022-12-07T11:33:32;9.30;;;4.35;;
18411;SDS011;27097;51.738;19.472;2022-12-07T11:36:11;15.35;;;4.22;;
18411;SDS011;27097;51.738;19.472;2022-12-07T11:38:57;6.60;;;3.65;;
18411;SDS011;27097;51.738;19.472;2022-12-07T11:41:28;11.38;;;3.88;;
18411;SDS011;27097;51.738;19.472;2022-12-07T11:44:00;11.10;;;3.78;;
18411;SDS011;27097;51.738;19.472;2022-12-07T11:46:36;9.10;;;3.80;;
18411;SDS011;27097;51.738;19.472;2022-12-07T11:49:12;10.50;;;4.03;;
18411;SDS011;27097;51.738;19.472;2022-12-07T11:51:46;7.30;;;3.50;;
18411;SDS011;27097;51.738;19.472;2022-12-07T11:54:18;10.38;;;3.80;;
18411;SDS011;27097;51.738;19.472;2022-12-07T11:56:48;9.15;;;3.60;;
18411;SDS011;27097;51.738;19.472;2022-12-07T11:59:17;7.25;;;3.55;;
18411;SDS011;27097;51.738;19.472;2022-12-07T12:01:53;9.27;;;3.40;;
18411;SDS011;27097;51.738;19.472;2022-12-07T12:04:25;11.60;;;3.80;;
18411;SDS011;27097;51.738;19.472;2022-12-07T12:06:58;10.15;;;3.65;;
18411;SDS011;27097;51.738;19.472;2022-12-07T12:09:27;9.45;;;3.60;;
18411;SDS011;27097;51.738;19.472;2022-12-07T12:14:59;10.00;;;3.42;;
18411;SDS011;27097;51.738;19.472;2022-12-07T12:17:49;8.90;;;3.67;;
18411;SDS011;27097;51.738;19.472;2022-12-07T12:20:35;6.82;;;4.00;;
18411;SDS011;27097;51.738;19.472;2022-12-07T12:23:09;5.88;;;3.65;;
18411;SDS011;27097;51.738;19.472;2022-12-07T12:25:41;6.38;;;3.20;;
18411;SDS011;27097;51.738;19.472;2022-12-07T12:28:22;8.88;;;4.10;;
18411;SDS011;27097;51.738;19.472;2022-12-07T12:31:10;8.18;;;3.88;;
18411;SDS011;27097;51.738;19.472;2022-12-07T12:33:42;10.13;;;3.80;;
18411;SDS011;27097;51.738;19.472;2022-12-07T12:36:18;8.25;;;3.53;;
18411;SDS011;27097;51.738;19.472;2022-12-07T12:38:50;6.97;;;3.45;;
18411;SDS011;27097;51.738;19.472;2022-12-07T12:41:53;9.40;;;3.95;;
18411;SDS011;27097;51.738;19.472;2022-12-07T12:50:56;13.23;;;4.10;;
18411;SDS011;27097;51.738;19.472;2022-12-07T12:54:04;9.60;;;4.10;;
18411;SDS011;27097;51.738;19.472;2022-12-07T12:56:38;9.25;;;4.47;;
18411;SDS011;27097;51.738;19.472;2022-12-07T12:59:21;15.07;;;4.63;;
18411;SDS011;27097;51.738;19.472;2022-12-07T13:01:50;8.43;;;4.03;;
18411;SDS011;27097;51.738;19.472;2022-12-07T13:04:31;9.35;;;4.55;;
18411;SDS011;27097;51.738;19.472;2022-12-07T13:07:08;9.10;;;4.75;;
18411;SDS011;27097;51.738;19.472;2022-12-07T13:09:42;18.15;;;4.55;;
18411;SDS011;27097;51.738;19.472;2022-12-07T13:12:12;9.95;;;3.75;;
18411;SDS011;27097;51.738;19.472;2022-12-07T13:14:43;11.88;;;3.95;;
18411;SDS011;27097;51.738;19.472;2022-12-07T13:23:11;8.80;;;4.07;;
18411;SDS011;27097;51.738;19.472;2022-12-07T13:25:45;11.52;;;4.40;;
18411;SDS011;27097;51.738;19.472;2022-12-07T13:28:20;11.73;;;4.45;;
18411;SDS011;27097;51.738;19.472;2022-12-07T13:30:58;7.25;;;4.55;;
18411;SDS011;27097;51.738;19.472;2022-12-07T13:33:30;12.50;;;4.82;;
18411;SDS011;27097;51.738;19.472;2022-12-07T13:36:00;10.73;;;4.45;;
18411;SDS011;27097;51.738;19.472;2022-12-07T13:38:29;13.65;;;5.15;;
18411;SDS011;27097;51.738;19.472;2022-12-07T13:41:02;11.18;;;4.85;;
18411;SDS011;27097;51.738;19.472;2022-12-07T13:43:30;10.30;;;5.47;;
18411;SDS011;27097;51.738;19.472;2022-12-07T13:45:57;10.70;;;5.07;;
18411;SDS011;27097;51.738;19.472;2022-12-07T13:48:27;7.40;;;4.93;;
18411;SDS011;27097;51.738;19.472;2022-12-07T13:50:59;14.18;;;5.40;;
18411;SDS011;27097;51.738;19.472;2022-12-07T13:53:28;8.45;;;4.70;;
18411;SDS011;27097;51.738;19.472;2022-12-07T13:55:56;16.45;;;4.85;;
18411;SDS011;27097;51.738;19.472;2022-12-07T13:58:24;12.52;;;4.97;;
18411;SDS011;27097;51.738;19.472;2022-12-07T14:00:53;20.88;;;4.80;;
18411;SDS011;27097;51.738;19.472;2022-12-07T14:03:23;8.63;;;4.70;;
18411;SDS011;27097;51.738;19.472;2022-12-07T14:06:10;10.05;;;4.63;;
18411;SDS011;27097;51.738;19.472;2022-12-07T14:08:42;10.77;;;4.60;;
18411;SDS011;27097;51.738;19.472;2022-12-07T14:11:11;14.63;;;4.93;;
18411;SDS011;27097;51.738;19.472;2022-12-07T14:13:44;10.20;;;5.13;;
18411;SDS011;27097;51.738;19.472;2022-12-07T14:16:21;8.57;;;4.32;;
18411;SDS011;27097;51.738;19.472;2022-12-07T14:18:53;15.40;;;4.88;;
18411;SDS011;27097;51.738;19.472;2022-12-07T14:21:21;11.70;;;4.50;;
18411;SDS011;27097;51.738;19.472;2022-12-07T14:24:04;11.35;;;4.82;;
18411;SDS011;27097;51.738;19.472;2022-12-07T14:26:36;12.57;;;4.80;;
18411;SDS011;27097;51.738;19.472;2022-12-07T14:29:20;10.73;;;4.60;;
18411;SDS011;27097;51.738;19.472;2022-12-07T14:31:49;8.52;;;4.43;;
18411;SDS011;27097;51.738;19.472;2022-12-07T14:34:16;13.70;;;4.47;;
18411;SDS011;27097;51.738;19.472;2022-12-07T14:36:45;15.57;;;4.43;;
18411;SDS011;27097;51.738;19.472;2022-12-07T14:39:14;11.38;;;4.38;;
18411;SDS011;27097;51.738;19.472;2022-12-07T14:41:40;13.77;;;4.55;;
18411;SDS011;27097;51.738;19.472;2022-12-07T14:44:17;10.23;;;4.70;;
18411;SDS011;27097;51.738;19.472;2022-12-07T14:46:45;8.50;;;4.30;;
18411;SDS011;27097;51.738;19.472;2022-12-07T14:49:12;12.25;;;4.53;;
18411;SDS011;27097;51.738;19.472;2022-12-07T14:51:39;14.13;;;4.22;;
18411;SDS011;27097;51.738;19.472;2022-12-07T14:54:11;13.98;;;4.30;;
18411;SDS011;27097;51.738;19.472;2022-12-07T14:56:42;22.58;;;4.53;;
18411;SDS011;27097;51.738;19.472;2022-12-07T14:59:10;11.15;;;4.63;;
18411;SDS011;27097;51.738;19.472;2022-12-07T15:01:38;11.43;;;4.22;;
18411;SDS011;27097;51.738;19.472;2022-12-07T15:04:05;11.27;;;4.30;;
18411;SDS011;27097;51.738;19.472;2022-12-07T15:06:32;12.70;;;4.55;;
18411;SDS011;27097;51.738;19.472;2022-12-07T15:08:59;17.70;;;3.92;;
18411;SDS011;27097;51.738;19.472;2022-12-07T15:11:27;10.88;;;3.97;;
18411;SDS011;27097;51.738;19.472;2022-12-07T15:13:54;10.43;;;3.97;;
18411;SDS011;27097;51.738;19.472;2022-12-07T15:16:34;9.93;;;3.70;;